Terminal Aerodrome Forecast
Issued by NWS Charleston, WV

Current Version | Previous Version | Graphics & Text | Print | Product List | Glossary On
Versions: 1 2 3 4 5 6 7 8 9 10 11 12 13 14 15 16 17 18 19 20 21 22 23 24 25 26
000
FTUS41 KRLX 172321
TAFHTS
TAF
KHTS 172321Z 1800/1824 32007KT P6SM SKC
     FM180200 02005KT P6SM SKC
     FM180600 00000KT P6SM BKN050
     FM180800 00000KT P6SM BKN040
     FM181400 14004KT P6SM BKN025
     FM181600 15005KT P6SM SCT050
     FM182200 23009G16KT P6SM BKN050=

USA.gov is the U.S. government's official web portal to all federal, state and local government web resources and services.